createdAt,value
2022-10-10T00:01:01.006Z,38.68
2022-10-10T00:06:08.174Z,38.62
2022-10-10T00:11:15.356Z,38.88
2022-10-10T00:16:22.581Z,39.02
2022-10-10T00:21:29.809Z,39.16
2022-10-10T00:26:37.034Z,39.05
2022-10-10T00:31:44.201Z,39.11
2022-10-10T00:36:51.410Z,39.12
2022-10-10T00:41:58.598Z,39.22
2022-10-10T00:47:05.740Z,39.16
2022-10-10T00:52:12.929Z,39.14
2022-10-10T00:57:20.154Z,39.21
2022-10-10T01:02:27.329Z,39.25
2022-10-10T01:07:34.626Z,39.26
2022-10-10T01:12:41.881Z,39.29
2022-10-10T01:17:49.054Z,39.34
2022-10-10T01:22:56.460Z,39.43
2022-10-10T01:28:04.085Z,39.48
2022-10-10T01:33:11.128Z,39.61
2022-10-10T01:38:18.328Z,39.71
2022-10-10T01:43:25.596Z,39.67
2022-10-10T01:48:33.056Z,39.78
2022-10-10T01:53:41.641Z,39.82
2022-10-10T01:58:48.960Z,39.87
2022-10-10T02:03:56.216Z,39.95
2022-10-10T02:09:03.435Z,40.00
2022-10-10T02:14:10.673Z,40.12
2022-10-10T02:19:18.068Z,40.24
2022-10-10T02:24:25.337Z,40.29
2022-10-10T02:29:32.613Z,40.38
2022-10-10T02:34:39.790Z,40.44
2022-10-10T02:39:47.016Z,40.44
2022-10-10T02:44:54.300Z,40.40
2022-10-10T02:50:01.633Z,40.41
2022-10-10T02:55:08.948Z,40.39
2022-10-10T03:00:16.181Z,40.39
2022-10-10T03:05:23.416Z,40.34
2022-10-10T03:10:30.620Z,40.36
2022-10-10T03:15:37.897Z,40.36
2022-10-10T03:20:45.091Z,40.46
2022-10-10T03:25:52.354Z,40.50
2022-10-10T03:30:59.643Z,40.54
2022-10-10T03:36:06.883Z,40.62
2022-10-10T03:41:14.152Z,40.68
2022-10-10T03:46:21.452Z,40.73
2022-10-10T03:51:28.784Z,40.86
2022-10-10T03:56:36.032Z,40.91
2022-10-10T04:01:43.341Z,40.89
2022-10-10T04:06:50.601Z,40.96
2022-10-10T04:11:57.817Z,41.11
2022-10-10T04:17:05.053Z,41.06
2022-10-10T04:22:12.297Z,40.98
2022-10-10T04:27:19.505Z,40.98
2022-10-10T04:32:26.755Z,41.02
2022-10-10T04:37:33.914Z,41.03
2022-10-10T04:42:42.143Z,41.01
2022-10-10T04:47:49.369Z,41.01
2022-10-10T04:52:56.556Z,41.00
2022-10-10T04:58:03.750Z,41.00
2022-10-10T05:03:11.001Z,40.98
2022-10-10T05:08:18.167Z,40.93
2022-10-10T05:13:25.375Z,40.96
2022-10-10T05:18:32.592Z,40.98
2022-10-10T05:23:39.791Z,41.03
2022-10-10T05:28:47.108Z,41.19
2022-10-10T05:33:54.307Z,41.20
2022-10-10T05:39:01.527Z,41.35
2022-10-10T05:44:08.706Z,41.36
2022-10-10T05:49:15.944Z,41.42
2022-10-10T05:54:23.106Z,41.48
2022-10-10T05:59:30.323Z,41.39
2022-10-10T06:04:37.563Z,41.27
2022-10-10T06:09:44.695Z,41.19
2022-10-10T06:14:51.918Z,41.11
2022-10-10T06:19:59.169Z,41.13
2022-10-10T06:25:15.259Z,41.16
2022-10-10T06:30:13.652Z,41.14
2022-10-10T06:35:20.873Z,41.07
2022-10-10T06:40:28.079Z,41.16
2022-10-10T06:45:35.324Z,41.49
2022-10-10T06:50:42.598Z,41.55
2022-10-10T06:55:49.775Z,41.49
2022-10-10T07:00:56.987Z,41.44
2022-10-10T07:06:04.171Z,41.45
2022-10-10T07:11:11.408Z,41.47
2022-10-10T07:16:18.772Z,41.58
2022-10-10T07:21:26.067Z,41.58
2022-10-10T07:26:33.354Z,41.74
2022-10-10T07:31:40.525Z,41.75
2022-10-10T07:36:47.756Z,41.69
2022-10-10T07:41:54.990Z,42.04
2022-10-10T07:47:02.283Z,41.79
2022-10-10T07:52:09.577Z,41.70
2022-10-10T07:57:16.778Z,41.65
2022-10-10T08:02:23.979Z,41.82
2022-10-10T08:07:31.188Z,42.06
2022-10-10T08:12:38.357Z,41.98
2022-10-10T08:17:45.512Z,41.90
2022-10-10T08:22:53.008Z,41.84
2022-10-10T08:27:59.843Z,41.73
2022-10-10T08:33:07.071Z,41.77
2022-10-10T08:38:14.293Z,41.66
2022-10-10T08:43:21.506Z,41.92
2022-10-10T08:48:28.689Z,41.83
2022-10-10T08:53:35.939Z,42.09
2022-10-10T08:58:43.116Z,42.01
2022-10-10T09:03:50.319Z,41.94
2022-10-10T09:08:57.583Z,41.96
2022-10-10T09:14:04.802Z,41.87
2022-10-10T09:19:14.730Z,42.03
2022-10-10T09:24:19.344Z,42.38
2022-10-10T09:29:26.428Z,41.96
2022-10-10T09:34:33.652Z,42.01
2022-10-10T09:39:40.880Z,41.87
2022-10-10T09:44:48.043Z,41.99
2022-10-10T09:49:55.271Z,42.03
2022-10-10T09:55:02.475Z,42.05
2022-10-10T10:00:09.659Z,42.05
2022-10-10T10:05:16.886Z,42.06
2022-10-10T10:10:24.194Z,42.05
2022-10-10T10:15:31.272Z,42.02
2022-10-10T10:20:38.472Z,42.23
2022-10-10T10:25:45.698Z,42.08
2022-10-10T10:30:53.034Z,42.08
2022-10-10T10:36:00.741Z,42.21
2022-10-10T10:41:07.532Z,42.06
2022-10-10T10:46:14.679Z,41.92
2022-10-10T10:51:21.911Z,42.03
2022-10-10T10:56:29.145Z,41.97
2022-10-10T11:01:56.392Z,41.94
2022-10-10T11:06:54.258Z,42.00
2022-10-10T11:11:50.768Z,42.14
2022-10-10T11:16:57.925Z,41.96
2022-10-10T11:22:05.165Z,41.95
2022-10-10T11:27:12.378Z,42.05
2022-10-10T11:37:26.777Z,42.17
2022-10-10T11:42:34.122Z,42.06
2022-10-10T11:47:41.164Z,42.19
2022-10-10T11:52:48.368Z,42.14
2022-10-10T11:57:55.593Z,42.14
2022-10-10T12:03:02.765Z,42.14
2022-10-10T12:08:11.520Z,42.32
2022-10-10T12:13:17.238Z,42.17
2022-10-10T12:18:24.363Z,42.10
2022-10-10T12:23:31.590Z,42.32
2022-10-10T12:28:41.079Z,42.28
2022-10-10T12:33:48.151Z,42.58
2022-10-10T12:39:00.641Z,42.33
2022-10-10T12:44:04.300Z,42.40
2022-10-10T12:49:11.463Z,42.28
2022-10-10T12:54:19.124Z,42.27
2022-10-10T12:59:26.388Z,42.54
2022-10-10T13:04:33.525Z,42.46
2022-10-10T13:09:40.742Z,42.97
2022-10-10T13:14:47.963Z,43.05
2022-10-10T13:19:58.720Z,42.87
2022-10-10T13:25:05.989Z,42.85
2022-10-10T13:30:13.263Z,42.89
2022-10-10T13:35:20.563Z,42.83
2022-10-10T13:40:27.757Z,42.86
2022-10-10T13:45:34.972Z,42.83
2022-10-10T13:50:42.157Z,42.84
2022-10-10T13:55:49.331Z,42.86
2022-10-10T14:00:56.609Z,43.01
2022-10-10T14:06:03.760Z,42.97
2022-10-10T14:11:10.986Z,42.91
2022-10-10T14:16:18.243Z,42.81
2022-10-10T14:21:25.445Z,42.77
2022-10-10T14:26:32.584Z,42.68
2022-10-10T14:31:40.642Z,42.63
2022-10-10T14:36:47.840Z,42.62
2022-10-10T14:41:55.003Z,42.90
2022-10-10T14:47:02.254Z,42.75
2022-10-10T14:52:09.490Z,42.80
2022-10-10T14:57:16.670Z,42.92
2022-10-10T15:02:23.867Z,42.92
2022-10-10T15:07:31.049Z,43.11
2022-10-10T15:12:38.223Z,43.25
2022-10-10T15:17:45.470Z,43.32
2022-10-10T15:22:52.666Z,43.33
2022-10-10T15:27:59.873Z,43.37
2022-10-10T15:33:07.128Z,43.40
2022-10-10T15:38:14.336Z,43.44
2022-10-10T15:43:21.601Z,43.45
2022-10-10T15:48:28.847Z,43.48
2022-10-10T15:53:36.058Z,43.30
2022-10-10T15:58:43.231Z,43.45
2022-10-10T16:03:50.432Z,43.45
2022-10-10T16:09:16.420Z,43.47
2022-10-10T16:14:04.818Z,43.55
2022-10-10T16:19:12.046Z,43.59
2022-10-10T16:24:19.224Z,43.71
2022-10-10T16:29:26.436Z,43.78
2022-10-10T16:34:33.623Z,43.70
2022-10-10T16:39:40.831Z,43.97
2022-10-10T16:44:48.038Z,43.78
2022-10-10T16:49:55.249Z,43.87
2022-10-10T16:55:02.449Z,43.80
2022-10-10T17:00:09.654Z,43.97
2022-10-10T17:05:16.894Z,43.89
2022-10-10T17:10:24.166Z,43.92
2022-10-10T17:15:31.370Z,43.86
2022-10-10T17:20:38.600Z,44.39
2022-10-10T17:25:45.862Z,44.03
2022-10-10T17:30:53.102Z,44.82
2022-10-10T17:36:00.339Z,44.09
2022-10-10T17:41:07.502Z,44.18
2022-10-10T17:46:33.646Z,44.11
2022-10-10T17:51:21.984Z,44.29
2022-10-10T17:56:29.197Z,44.37
2022-10-10T18:01:36.510Z,44.31
2022-10-10T18:06:43.569Z,44.29
2022-10-10T18:11:50.725Z,44.46
2022-10-10T18:16:57.899Z,44.34
2022-10-10T18:22:05.188Z,44.26
2022-10-10T18:27:12.377Z,44.27
2022-10-10T18:32:19.844Z,44.17
2022-10-10T18:37:27.212Z,44.18
2022-10-10T18:42:34.664Z,44.02
2022-10-10T18:47:42.279Z,43.99
2022-10-10T18:52:49.718Z,43.92
2022-10-10T18:57:56.954Z,44.90
2022-10-10T19:03:04.217Z,44.33
2022-10-10T19:08:11.441Z,44.08
2022-10-10T19:13:18.623Z,44.16
2022-10-10T19:18:25.776Z,43.99
2022-10-10T19:23:33.053Z,43.90
2022-10-10T19:28:40.307Z,43.87
2022-10-10T19:33:47.541Z,43.72
2022-10-10T19:38:54.743Z,43.66
2022-10-10T19:44:01.909Z,43.42
2022-10-10T19:49:09.076Z,43.30
2022-10-10T19:54:18.745Z,43.16
2022-10-10T19:59:25.932Z,43.19
2022-10-10T20:04:33.117Z,43.05
2022-10-10T20:09:40.351Z,43.04
2022-10-10T20:14:47.539Z,43.12
2022-10-10T20:19:54.808Z,42.84
2022-10-10T20:25:02.039Z,42.67
2022-10-10T20:30:09.253Z,42.81
2022-10-10T20:35:16.736Z,42.88
2022-10-10T20:40:23.994Z,42.93
2022-10-10T20:45:31.168Z,43.01
2022-10-10T20:50:38.371Z,43.04
2022-10-10T20:55:45.576Z,43.16
2022-10-10T21:00:52.822Z,43.06
2022-10-10T21:06:00.045Z,43.04
2022-10-10T21:11:07.326Z,43.19
2022-10-10T21:16:14.552Z,43.09
2022-10-10T21:21:21.809Z,43.01
2022-10-10T21:26:29.008Z,43.13
2022-10-10T21:31:36.292Z,43.01
2022-10-10T21:36:43.552Z,42.76
2022-10-10T21:41:50.759Z,42.59
2022-10-10T21:46:57.948Z,42.23
2022-10-10T21:52:05.218Z,42.05
2022-10-10T21:57:12.479Z,42.47
2022-10-10T22:02:19.678Z,42.20
2022-10-10T22:07:26.865Z,42.23
2022-10-10T22:12:34.074Z,42.27
2022-10-10T22:17:41.287Z,42.35
2022-10-10T22:22:48.487Z,42.50
2022-10-10T22:27:57.354Z,42.21
2022-10-10T22:33:02.912Z,42.20
2022-10-10T22:38:10.151Z,41.97
2022-10-10T22:43:17.434Z,42.40
2022-10-10T22:48:24.594Z,42.04
2022-10-10T22:53:31.831Z,41.94
2022-10-10T22:58:39.053Z,42.08
2022-10-10T23:03:46.266Z,42.16
2022-10-10T23:08:53.435Z,42.14
2022-10-10T23:14:00.721Z,42.12
2022-10-10T23:19:07.825Z,42.06
2022-10-10T23:24:15.015Z,42.09
2022-10-10T23:29:22.253Z,42.13
2022-10-10T23:34:29.450Z,42.17
2022-10-10T23:39:36.699Z,41.98
2022-10-10T23:44:43.963Z,41.99
2022-10-10T23:49:51.089Z,42.17
2022-10-10T23:54:58.260Z,42.09
